Time;durP1;ratioP1;P1;durP2;ratioP2;P2;SDS_P1;SDS_P2;PMS_P1;PMS_P2;Temp;Humidity;BMP_temperature;BMP_pressure;BME280_temperature;BME280_humidity;BME280_pressure;Samples;Min_cycle;Max_cycle;Signal;HPM_P1;HPM_P2
2024/01/16 00:01:28;;;;;;;19.67;12.02;;;;;;;0.36;76.99;93221.38;5113773;28;20069;-64
2024/01/16 00:03:54;;;;;;;19.35;12.25;;;;;;;0.48;76.89;93213.78;5096644;28;20088;-64
2024/01/16 00:06:19;;;;;;;20.52;12.60;;;;;;;0.34;76.90;93243.66;5096659;28;20473;-64
2024/01/16 00:08:45;;;;;;;18.75;11.77;;;;;;;0.49;77.21;93235.88;5114793;27;20039;-64
2024/01/16 00:11:10;;;;;;;18.30;10.23;;;;;;;0.56;77.11;93231.97;5114865;28;20091;-65
2024/01/16 00:13:35;;;;;;;15.30;10.00;;;;;;;0.53;77.20;93248.34;5114670;28;20023;-64
2024/01/16 00:16:04;;;;;;;18.92;10.82;;;;;;;0.65;76.83;93251.78;5113485;28;20032;-64
2024/01/16 00:18:30;;;;;;;16.77;10.43;;;;;;;0.71;76.03;93256.47;5114756;28;20059;-65
2024/01/16 00:20:55;;;;;;;16.67;10.68;;;;;;;0.81;76.43;93266.88;5096239;28;20032;-64
2024/01/16 00:23:21;;;;;;;16.23;10.35;;;;;;;0.84;75.45;93257.25;5114490;28;20048;-65
2024/01/16 00:25:46;;;;;;;16.77;10.85;;;;;;;0.94;74.63;93243.81;5096245;28;20390;-64
2024/01/16 00:28:11;;;;;;;18.55;9.70;;;;;;;0.85;74.62;93248.66;5096110;28;20428;-64
2024/01/16 00:30:37;;;;;;;15.98;9.60;;;;;;;0.95;75.09;93259.06;5114490;28;20385;-64
2024/01/16 00:33:02;;;;;;;16.77;9.30;;;;;;;0.96;75.40;93253.00;5112881;28;20027;-64
2024/01/16 00:35:28;;;;;;;14.65;8.77;;;;;;;0.99;75.65;93237.44;5114085;28;20055;-64
2024/01/16 00:37:53;;;;;;;15.30;10.05;;;;;;;0.96;75.66;93254.75;5096017;28;20028;-65
2024/01/16 00:40:19;;;;;;;15.40;9.45;;;;;;;1.05;75.54;93265.16;5114160;28;20077;-64
2024/01/16 00:42:44;;;;;;;13.18;8.88;;;;;;;1.08;75.90;93277.72;5114128;28;20027;-64
2024/01/16 00:45:09;;;;;;;15.50;8.80;;;;;;;1.13;75.81;93285.06;5112714;28;20027;-65
2024/01/16 00:47:35;;;;;;;15.25;9.30;;;;;;;0.99;76.00;93269.88;5114107;28;20024;-64
2024/01/16 00:50:01;;;;;;;14.65;9.57;;;;;;;0.85;75.46;93283.63;5113985;28;20488;-64
2024/01/16 00:52:27;;;;;;;16.25;10.18;;;;;;;0.81;75.99;93300.94;5112524;28;20059;-65
2024/01/16 00:54:52;;;;;;;18.50;10.98;;;;;;;0.85;74.90;93270.84;5112439;28;20078;-64
2024/01/16 00:57:19;;;;;;;16.38;9.43;;;;;;;0.89;74.33;93282.47;5113742;28;20478;-64
2024/01/16 00:59:48;;;;;;;15.55;10.48;;;;;;;0.92;74.88;93289.13;5112499;28;20557;-65
2024/01/16 01:02:14;;;;;;;14.63;9.18;;;;;;;0.93;75.11;93301.00;5112434;28;20076;-65
2024/01/16 01:04:41;;;;;;;14.77;9.30;;;;;;;1.05;75.59;93306.06;5095446;28;20027;-65
2024/01/16 01:07:07;;;;;;;15.95;9.57;;;;;;;0.98;75.43;93286.16;5095435;28;20036;-64
2024/01/16 01:09:32;;;;;;;13.05;9.00;;;;;;;1.02;74.91;93336.16;5095374;28;20080;-65
2024/01/16 01:11:57;;;;;;;15.15;9.35;;;;;;;0.98;73.93;93284.41;5113852;28;20063;-64
2024/01/16 01:14:23;;;;;;;14.20;9.63;;;;;;;1.00;74.72;93307.31;5113560;28;20081;-64
2024/01/16 01:16:48;;;;;;;13.95;8.85;;;;;;;0.86;75.11;93288.66;5112130;28;20069;-64
2024/01/16 01:19:14;;;;;;;15.40;9.30;;;;;;;0.90;74.72;93294.34;5095094;28;20035;-64
2024/01/16 01:21:39;;;;;;;14.02;9.15;;;;;;;1.15;74.47;93308.00;5113771;28;20031;-65
2024/01/16 01:24:04;;;;;;;13.13;8.02;;;;;;;1.11;74.24;93292.03;5113309;27;20089;-64
2024/01/16 01:26:30;;;;;;;12.98;8.25;;;;;;;1.06;74.91;93312.03;5112085;28;20534;-64
2024/01/16 01:28:55;;;;;;;11.88;8.32;;;;;;;1.00;74.54;93302.19;5111928;28;20028;-64
2024/01/16 01:31:21;;;;;;;12.00;7.88;;;;;;;0.88;74.48;93309.78;5111795;28;20035;-64
2024/01/16 01:33:47;;;;;;;9.18;6.78;;;;;;;1.16;74.28;93318.09;5111988;28;20031;-64
2024/01/16 01:36:12;;;;;;;14.13;8.82;;;;;;;1.29;74.11;93295.06;5112938;28;20047;-65
2024/01/16 01:38:38;;;;;;;12.00;7.32;;;;;;;1.24;72.83;93297.91;5113091;28;20532;-64
2024/01/16 01:41:03;;;;;;;10.05;6.93;;;;;;;1.37;72.23;93284.28;5113195;28;20397;-65
2024/01/16 01:43:29;;;;;;;12.93;8.13;;;;;;;1.27;73.64;93309.69;5111727;28;20028;-65
2024/01/16 01:46:14;;;;;;;12.75;7.90;;;;;;;1.42;74.00;93298.38;5111619;28;20374;-65
2024/01/16 01:48:43;;;;;;;14.80;8.65;;;;;;;1.33;73.99;93270.88;5094505;28;20499;-64
2024/01/16 01:51:09;;;;;;;11.98;7.85;;;;;;;1.19;74.28;93307.66;5094518;28;20062;-65
2024/01/16 01:53:35;;;;;;;10.93;7.10;;;;;;;1.42;74.79;93288.16;5112707;28;20039;-64
2024/01/16 01:56:07;;;;;;;11.88;7.40;;;;;;;1.15;74.90;93308.81;5094516;28;20023;-65
2024/01/16 01:58:33;;;;;;;10.10;6.30;;;;;;;1.22;75.48;93301.50;5111308;28;20032;-64
2024/01/16 02:01:00;;;;;;;10.52;6.80;;;;;;;1.12;75.62;93303.91;5111412;28;20032;-64
2024/01/16 02:03:27;;;;;;;13.18;8.27;;;;;;;1.37;74.72;93312.44;5094494;28;20042;-65
2024/01/16 02:05:52;;;;;;;14.45;7.68;;;;;;;1.39;75.06;93287.53;5110557;28;20304;-64
2024/01/16 02:08:18;;;;;;;12.80;8.02;;;;;;;1.33;76.08;93306.69;5094474;28;20417;-64
2024/01/16 02:10:43;;;;;;;13.60;8.25;;;;;;;1.37;75.33;93299.63;5112675;28;20030;-65
2024/01/16 02:13:09;;;;;;;13.35;8.57;;;;;;;1.25;76.28;93306.41;5111047;28;20505;-64
2024/01/16 02:15:34;;;;;;;11.85;7.75;;;;;;;1.32;76.20;93305.88;5111073;28;20024;-64
2024/01/16 02:18:00;;;;;;;12.98;8.68;;;;;;;1.51;76.97;93310.50;5110925;28;20035;-64
2024/01/16 02:20:25;;;;;;;12.93;8.18;;;;;;;1.49;76.31;93298.75;5112235;28;20027;-64
2024/01/16 02:22:51;;;;;;;13.32;8.25;;;;;;;1.54;76.72;93317.16;5112177;28;20035;-64
2024/01/16 02:25:16;;;;;;;13.65;8.57;;;;;;;1.49;76.47;93330.28;5077112;28;20020;-64
2024/01/16 02:27:42;;;;;;;14.57;9.90;;;;;;;1.59;77.03;93335.56;5110884;28;20028;-64
2024/01/16 02:30:07;;;;;;;13.65;8.15;;;;;;;1.33;77.70;93306.69;5110901;28;20019;-65
2024/01/16 02:32:33;;;;;;;9.43;5.18;;;;;;;1.41;79.67;93290.78;5111911;28;20028;-64
2024/01/16 02:34:58;;;;;;;8.48;5.40;;;;;;;1.43;79.90;93317.09;5110727;28;20023;-64
2024/01/16 02:37:24;;;;;;;12.52;8.38;;;;;;;1.17;80.76;93337.66;5110414;28;20441;-64
2024/01/16 02:39:49;;;;;;;13.73;9.63;;;;;;;1.31;79.34;93321.34;5111817;28;20486;-64
2024/01/16 02:42:15;;;;;;;14.25;10.10;;;;;;;1.29;79.71;93323.19;5111733;28;20036;-64
2024/01/16 02:44:40;;;;;;;16.50;9.75;;;;;;;0.97;80.65;93333.91;5110413;28;20035;-64
2024/01/16 02:47:07;;;;;;;15.85;10.45;;;;;;;1.26;80.18;93339.56;5110426;28;20559;-64
2024/01/16 02:49:32;;;;;;;14.70;9.93;;;;;;;1.43;79.80;93360.59;5110358;28;20456;-65
2024/01/16 02:51:58;;;;;;;10.35;7.85;;;;;;;1.34;80.28;93332.19;5111431;28;20074;-64
2024/01/16 02:54:23;;;;;;;10.70;7.43;;;;;;;1.31;80.92;93362.28;5093612;28;20073;-64
2024/01/16 02:56:49;;;;;;;11.07;6.57;;;;;;;1.18;81.52;93351.28;5111994;28;20035;-64
2024/01/16 02:59:14;;;;;;;14.38;8.95;;;;;;;1.53;80.53;93392.28;5111857;28;20023;-64
2024/01/16 03:01:40;;;;;;;11.25;7.28;;;;;;;1.39;80.79;93392.44;5111942;28;20035;-64
2024/01/16 03:04:05;;;;;;;12.50;8.25;;;;;;;1.40;80.94;93379.56;5110324;28;20452;-64
2024/01/16 03:06:30;;;;;;;11.45;7.50;;;;;;;1.36;81.57;93382.41;5111783;28;20032;-64
2024/01/16 03:08:56;;;;;;;11.30;6.90;;;;;;;1.49;81.44;93416.47;5110217;28;20497;-64
2024/01/16 03:11:21;;;;;;;14.25;9.93;;;;;;;1.65;80.19;93432.41;5111669;28;20028;-64
2024/01/16 03:13:49;;;;;;;22.80;14.02;;;;;;;1.64;80.60;93430.75;5111412;28;20032;-65
2024/01/16 03:16:14;;;;;;;23.15;13.80;;;;;;;1.51;80.28;93440.22;5111110;28;20027;-64
2024/01/16 03:18:40;;;;;;;22.05;13.10;;;;;;;1.51;80.92;93451.28;5110076;28;20032;-64
2024/01/16 03:21:06;;;;;;;14.57;11.18;;;;;;;1.51;80.51;93453.03;5110181;28;20047;-64
2024/01/16 03:23:31;;;;;;;15.60;10.27;;;;;;;1.56;81.39;93459.47;5111264;28;20089;-64
2024/01/16 03:25:57;;;;;;;14.75;10.88;;;;;;;1.62;80.34;93455.66;5111394;28;20028;-64
2024/01/16 03:28:22;;;;;;;15.18;9.95;;;;;;;1.65;80.10;93487.91;5110002;28;20031;-65
2024/01/16 03:30:48;;;;;;;12.60;8.68;;;;;;;1.73;79.79;93495.88;5111045;28;20024;-64
2024/01/16 03:33:13;;;;;;;12.85;8.15;;;;;;;1.81;79.54;93487.66;5109912;28;20521;-64
2024/01/16 03:35:39;;;;;;;11.35;8.02;;;;;;;1.64;80.29;93512.69;5109738;28;20048;-64
2024/01/16 03:38:04;;;;;;;12.93;8.52;;;;;;;1.54;81.10;93509.94;5111092;28;20035;-64
2024/01/16 03:40:33;;;;;;;10.13;7.93;;;;;;;1.67;81.26;93527.00;5109855;28;20501;-64
2024/01/16 03:43:02;;;;;;;15.93;11.98;;;;;;;1.77;81.98;93535.72;5093305;28;20083;-65
2024/01/16 03:45:27;;;;;;;12.90;8.38;;;;;;;1.88;82.28;93555.47;5109821;28;20032;-64
2024/01/16 03:47:53;;;;;;;12.63;8.25;;;;;;;1.53;82.75;93566.34;5111126;28;20031;-64
2024/01/16 03:50:18;;;;;;;15.07;10.43;;;;;;;1.54;84.33;93557.75;5111075;28;20028;-64
2024/01/16 03:52:43;;;;;;;12.60;8.55;;;;;;;1.73;84.88;93565.03;5109726;28;20027;-64
2024/01/16 03:55:09;;;;;;;7.53;5.70;;;;;;;1.78;84.94;93575.75;5109553;28;20035;-64
2024/01/16 03:57:34;;;;;;;6.90;5.32;;;;;;;1.84;85.32;93582.19;5111289;28;20043;-64
2024/01/16 04:00:00;;;;;;;5.88;4.78;;;;;;;1.84;85.19;93587.31;5110972;28;20016;-64
2024/01/16 04:02:25;;;;;;;6.60;5.15;;;;;;;1.80;86.19;93594.38;5109663;28;20035;-64
2024/01/16 04:04:50;;;;;;;7.80;5.50;;;;;;;1.89;86.10;93592.94;5110898;28;20203;-64
2024/01/16 04:07:16;;;;;;;8.10;5.88;;;;;;;1.71;86.58;93593.28;5110833;28;20508;-64
2024/01/16 04:09:44;;;;;;;9.88;7.63;;;;;;;1.83;86.12;93595.94;5110779;28;20027;-64
2024/01/16 04:12:10;;;;;;;8.63;6.50;;;;;;;1.83;85.74;93611.28;5110730;28;20044;-64
2024/01/16 04:14:36;;;;;;;6.97;4.90;;;;;;;1.81;85.66;93608.81;5110819;28;20023;-64
2024/01/16 04:17:01;;;;;;;9.88;7.63;;;;;;;1.86;85.46;93616.19;5109698;28;20046;-64
2024/01/16 04:19:27;;;;;;;6.07;4.90;;;;;;;1.89;85.23;93632.19;5110687;28;20034;-65
2024/01/16 04:21:53;;;;;;;6.47;4.10;;;;;;;1.59;84.95;93645.31;5092797;28;20481;-64
2024/01/16 04:24:18;;;;;;;3.22;2.47;;;;;;;1.66;84.51;93641.41;5110712;28;20043;-64
2024/01/16 04:26:44;;;;;;;10.98;6.05;;;;;;;1.57;84.22;93634.34;5111059;28;20035;-65
2024/01/16 04:29:12;;;;;;;4.45;3.30;;;;;;;1.62;83.30;93636.63;5111772;28;20047;-64
2024/01/16 04:31:41;;;;;;;5.05;3.40;;;;;;;1.49;83.22;93634.84;5114648;28;20027;-64
2024/01/16 04:34:06;;;;;;;2.70;2.30;;;;;;;1.50;83.04;93635.66;5114267;28;20053;-64
2024/01/16 04:36:31;;;;;;;4.22;2.42;;;;;;;1.47;82.91;93639.25;5112883;28;20055;-64
2024/01/16 04:38:57;;;;;;;4.18;3.08;;;;;;;1.34;83.22;93630.75;5114458;27;20481;-64
2024/01/16 04:41:22;;;;;;;4.30;2.92;;;;;;;1.51;83.00;93638.13;5096010;28;20032;-64
2024/01/16 04:43:49;;;;;;;5.53;3.47;;;;;;;1.55;82.47;93634.44;5112920;28;20039;-64
2024/01/16 04:46:15;;;;;;;3.75;3.28;;;;;;;1.60;82.10;93635.88;5114282;28;20116;-64
2024/01/16 04:48:40;;;;;;;6.97;5.60;;;;;;;1.70;81.72;93645.41;5095865;28;20054;-64
2024/01/16 04:51:07;;;;;;;6.85;5.20;;;;;;;1.64;81.52;93653.47;5108965;28;20031;-64
2024/01/16 04:53:33;;;;;;;4.85;3.55;;;;;;;1.73;81.33;93665.69;5103858;28;20088;-65
2024/01/16 04:55:58;;;;;;;5.18;3.40;;;;;;;1.55;82.33;93680.53;5107451;28;20450;-64
2024/01/16 04:58:24;;;;;;;3.47;2.60;;;;;;;1.54;81.54;93675.50;5108876;27;20043;-64
2024/01/16 05:00:49;;;;;;;3.60;2.25;;;;;;;1.61;81.45;93698.97;5075732;28;20111;-64
2024/01/16 05:03:15;;;;;;;4.28;3.42;;;;;;;1.33;81.51;93693.06;5102056;27;20028;-64
2024/01/16 05:05:40;;;;;;;3.47;2.65;;;;;;;1.48;81.60;93706.63;5091771;28;20034;-64
2024/01/16 05:08:06;;;;;;;5.53;4.20;;;;;;;1.51;81.46;93721.78;5105419;28;20042;-64
2024/01/16 05:10:31;;;;;;;3.88;3.05;;;;;;;1.53;80.65;93723.34;5109522;28;20034;-64
2024/01/16 05:12:57;;;;;;;4.40;3.42;;;;;;;1.47;80.13;93735.69;5106508;28;20051;-64
2024/01/16 05:15:22;;;;;;;5.15;3.75;;;;;;;1.47;80.56;93740.81;5094832;28;20405;-65
2024/01/16 05:17:48;;;;;;;4.10;3.35;;;;;;;1.32;80.52;93743.44;5107669;28;20508;-65
2024/01/16 05:20:13;;;;;;;5.93;4.53;;;;;;;1.39;80.06;93748.16;5111867;28;20031;-64
2024/01/16 05:22:39;;;;;;;3.22;2.70;;;;;;;1.37;80.00;93755.13;5102374;27;20056;-64
2024/01/16 05:25:06;;;;;;;6.68;3.60;;;;;;;1.15;80.79;93751.38;5109599;28;20027;-64
2024/01/16 05:27:32;;;;;;;3.60;2.92;;;;;;;1.14;80.56;93767.63;5078282;28;20088;-64
2024/01/16 05:29:58;;;;;;;3.72;2.78;;;;;;;1.15;80.77;93774.41;5094430;28;20475;-64
2024/01/16 05:32:23;;;;;;;8.05;5.50;;;;;;;1.15;80.71;93771.03;5112897;28;20626;-64
2024/01/16 05:34:49;;;;;;;3.97;2.95;;;;;;;1.18;80.19;93781.88;5104921;27;20222;-64
2024/01/16 05:37:14;;;;;;;3.83;2.97;;;;;;;1.20;80.38;93787.72;5107521;27;20055;-64
2024/01/16 05:39:39;;;;;;;3.03;2.40;;;;;;;1.11;80.16;93791.69;5106369;28;20401;-65
2024/01/16 05:42:05;;;;;;;3.78;2.85;;;;;;;1.12;79.37;93797.63;5110751;28;20036;-64
2024/01/16 05:44:30;;;;;;;2.00;1.52;;;;;;;1.18;78.70;93792.09;5085279;28;20414;-64
2024/01/16 05:46:56;;;;;;;2.38;1.98;;;;;;;1.14;78.59;93800.06;5111071;28;20031;-64
2024/01/16 05:49:21;;;;;;;2.67;1.88;;;;;;;1.08;77.61;93814.88;5109359;28;20032;-64
2024/01/16 05:51:46;;;;;;;2.42;1.73;;;;;;;1.04;78.24;93825.41;5111948;27;20027;-64
2024/01/16 05:54:12;;;;;;;2.42;1.63;;;;;;;0.90;77.78;93793.00;5105760;28;20509;-64
2024/01/16 05:56:37;;;;;;;2.53;1.92;;;;;;;1.10;78.07;93840.38;5109014;28;20035;-64
2024/01/16 05:59:03;;;;;;;2.30;1.70;;;;;;;1.20;76.98;93854.25;5112384;27;20109;-64
2024/01/16 06:01:28;;;;;;;2.72;1.88;;;;;;;1.21;76.55;93865.28;5090809;28;20414;-64
2024/01/16 06:03:56;;;;;;;3.22;2.08;;;;;;;1.11;76.25;93863.31;5097078;28;20463;-64
2024/01/16 06:06:22;;;;;;;2.65;1.90;;;;;;;1.18;75.85;93866.31;5058297;28;20031;-64
2024/01/16 06:08:47;;;;;;;2.83;1.75;;;;;;;1.23;74.17;93871.97;5073457;28;20510;-64
2024/01/16 06:11:13;;;;;;;3.30;2.60;;;;;;;1.05;74.15;93883.31;5097755;28;20028;-64
2024/01/16 06:13:39;;;;;;;3.92;2.78;;;;;;;1.05;74.67;93885.88;5110599;28;20039;-64
2024/01/16 06:16:06;;;;;;;5.03;3.40;;;;;;;0.94;75.70;93896.75;5104475;28;20051;-65
2024/01/16 06:18:33;;;;;;;2.90;2.10;;;;;;;1.11;75.29;93898.28;5092961;28;20031;-64
2024/01/16 06:20:59;;;;;;;2.67;2.22;;;;;;;0.99;75.20;93915.19;5101009;28;20455;-64
2024/01/16 06:23:24;;;;;;;2.70;2.00;;;;;;;0.94;75.31;93913.81;5108288;28;20042;-64
2024/01/16 06:25:50;;;;;;;2.75;2.08;;;;;;;1.13;74.89;93924.59;5100709;28;20035;-64
2024/01/16 06:28:15;;;;;;;2.50;2.00;;;;;;;1.14;74.72;93917.75;5109863;28;20024;-64
2024/01/16 06:30:41;;;;;;;3.17;2.33;;;;;;;1.11;75.26;93934.94;5111753;27;20019;-64
2024/01/16 06:33:06;;;;;;;2.78;2.08;;;;;;;1.04;75.45;93936.22;5107136;28;20512;-64
2024/01/16 06:35:31;;;;;;;4.00;2.85;;;;;;;1.07;75.47;93953.13;5093903;28;20055;-64
2024/01/16 06:37:58;;;;;;;3.53;2.00;;;;;;;0.95;75.50;93951.25;5092877;28;20031;-64
2024/01/16 06:40:23;;;;;;;4.15;3.13;;;;;;;0.97;76.07;93952.00;5117679;27;20038;-63
2024/01/16 06:42:49;;;;;;;2.88;2.17;;;;;;;1.09;74.53;93967.47;5110381;28;20031;-64
2024/01/16 06:45:15;;;;;;;2.47;1.90;;;;;;;1.03;75.19;93972.09;5070174;28;20031;-63
2024/01/16 06:47:41;;;;;;;2.92;2.20;;;;;;;1.14;74.85;93987.63;5090453;28;20047;-64
2024/01/16 06:50:07;;;;;;;3.20;2.58;;;;;;;1.23;74.87;93982.00;5097776;28;20038;-63
2024/01/16 06:52:33;;;;;;;3.13;2.40;;;;;;;1.23;74.54;93971.75;5110666;28;20039;-64
2024/01/16 06:54:58;;;;;;;4.38;3.10;;;;;;;0.93;75.25;93997.41;5106855;28;20534;-63
2024/01/16 06:57:24;;;;;;;5.68;3.67;;;;;;;0.97;74.94;94000.59;5109607;28;20516;-63
2024/01/16 06:59:49;;;;;;;4.82;3.35;;;;;;;0.99;75.56;93996.22;5117610;27;20022;-63
2024/01/16 07:02:14;;;;;;;3.78;2.85;;;;;;;0.98;74.73;94015.06;5103008;28;20019;-63
2024/01/16 07:04:40;;;;;;;4.63;2.80;;;;;;;0.62;75.08;94013.69;5107305;28;20023;-64
2024/01/16 07:07:05;;;;;;;2.83;2.05;;;;;;;0.48;74.21;94016.22;5108268;28;20424;-64
2024/01/16 07:09:31;;;;;;;3.35;2.13;;;;;;;0.61;73.31;94024.81;5095865;28;20024;-63
2024/01/16 07:11:56;;;;;;;2.97;1.77;;;;;;;0.73;71.44;94026.69;5111124;27;20024;-63
2024/01/16 07:14:22;;;;;;;2.22;1.48;;;;;;;0.64;71.23;94029.75;5110016;28;20039;-63
2024/01/16 07:16:47;;;;;;;3.53;1.88;;;;;;;0.54;71.17;94033.75;5111651;28;20031;-63
2024/01/16 07:19:12;;;;;;;4.75;1.83;;;;;;;0.39;71.33;94046.47;5109759;28;20031;-63
2024/01/16 07:21:38;;;;;;;3.78;1.85;;;;;;;0.49;71.44;94063.84;5092518;28;20028;-63
2024/01/16 07:24:04;;;;;;;2.92;2.17;;;;;;;0.55;71.27;94063.50;5111276;28;20039;-63
2024/01/16 07:26:29;;;;;;;3.15;1.90;;;;;;;0.60;71.28;94076.84;5093275;28;20023;-63
2024/01/16 07:28:55;;;;;;;5.05;1.60;;;;;;;0.56;72.00;94088.16;5092545;28;20528;-65
2024/01/16 07:31:20;;;;;;;3.25;2.00;;;;;;;0.55;71.74;94082.22;5107904;28;20092;-63
2024/01/16 07:33:45;;;;;;;5.63;2.72;;;;;;;0.74;71.47;94084.56;5107862;28;20028;-63
2024/01/16 07:36:11;;;;;;;2.92;1.98;;;;;;;0.66;71.00;94082.44;5107734;28;20126;-63
2024/01/16 07:38:37;;;;;;;3.50;2.25;;;;;;;0.82;71.32;94097.75;5107989;28;20032;-63
2024/01/16 07:41:03;;;;;;;3.03;2.10;;;;;;;0.79;71.35;94112.44;5108390;28;20039;-64
2024/01/16 07:43:29;;;;;;;4.13;2.13;;;;;;;0.76;71.60;94115.19;5108174;28;20462;-65
2024/01/16 07:45:55;;;;;;;2.63;1.73;;;;;;;0.84;71.41;94124.06;5092756;28;20020;-63
2024/01/16 07:48:20;;;;;;;5.68;2.53;;;;;;;0.88;71.35;94127.28;5111068;28;20038;-64
2024/01/16 07:50:46;;;;;;;5.35;3.00;;;;;;;0.91;70.70;94129.66;5109998;28;20027;-64
2024/01/16 07:53:11;;;;;;;5.20;2.83;;;;;;;0.70;71.13;94133.41;5110966;28;20047;-63
2024/01/16 07:55:37;;;;;;;4.55;1.30;;;;;;;0.68;70.72;94141.16;5111336;28;20100;-63
2024/01/16 07:58:04;;;;;;;2.72;1.60;;;;;;;0.81;70.38;94131.09;5110972;28;20032;-63
2024/01/16 08:00:30;;;;;;;2.60;2.17;;;;;;;0.68;70.43;94151.38;5111014;28;20023;-64
2024/01/16 08:02:55;;;;;;;3.38;2.30;;;;;;;0.52;70.40;94130.13;5111437;28;20066;-63
2024/01/16 08:05:25;;;;;;;2.92;2.10;;;;;;;0.76;69.94;94172.25;5096720;28;20497;-63
2024/01/16 08:07:50;;;;;;;3.80;2.35;;;;;;;0.54;70.90;94175.16;5115391;28;20035;-63
2024/01/16 08:10:16;;;;;;;4.07;2.58;;;;;;;0.64;70.83;94172.91;5114733;28;20040;-63
2024/01/16 08:12:41;;;;;;;2.75;1.85;;;;;;;0.75;71.36;94180.81;5096398;28;20058;-64
2024/01/16 08:15:07;;;;;;;4.78;3.28;;;;;;;0.71;70.95;94189.56;5096197;28;20031;-64
2024/01/16 08:17:33;;;;;;;3.35;2.35;;;;;;;0.72;70.93;94183.53;5113399;28;20035;-64
2024/01/16 08:19:59;;;;;;;4.60;3.22;;;;;;;0.70;71.35;94189.63;5113274;28;20031;-64
2024/01/16 08:22:24;;;;;;;5.25;3.35;;;;;;;0.76;71.10;94204.69;5114513;28;20409;-63
2024/01/16 08:24:50;;;;;;;5.03;3.35;;;;;;;0.78;71.20;94207.94;5113270;28;20032;-63
2024/01/16 08:27:16;;;;;;;8.25;4.80;;;;;;;0.88;70.16;94215.03;5113073;28;20039;-63
2024/01/16 08:29:42;;;;;;;9.90;6.30;;;;;;;0.86;71.04;94219.44;5114373;28;20031;-64
2024/01/16 08:32:07;;;;;;;8.80;5.70;;;;;;;1.03;71.19;94212.53;5095988;28;20034;-64
2024/01/16 08:34:33;;;;;;;3.92;2.60;;;;;;;1.08;70.44;94205.44;5113155;28;20505;-64
2024/01/16 08:36:58;;;;;;;4.75;3.10;;;;;;;0.91;70.85;94208.94;5114283;28;20493;-63
2024/01/16 08:39:24;;;;;;;5.75;3.10;;;;;;;0.90;70.89;94227.75;5114297;28;20420;-63
2024/01/16 08:41:50;;;;;;;6.22;3.22;;;;;;;0.78;70.70;94233.53;5114569;28;20032;-64
2024/01/16 08:44:15;;;;;;;7.68;3.15;;;;;;;0.83;69.58;94245.16;5114093;28;20074;-64
2024/01/16 08:46:40;;;;;;;4.68;3.28;;;;;;;0.62;70.69;94213.91;5113055;28;20091;-63
2024/01/16 08:49:06;;;;;;;18.70;10.70;;;;;;;0.87;70.56;94243.28;5113151;28;20105;-64
2024/01/16 08:51:31;;;;;;;7.50;4.10;;;;;;;0.80;70.65;94255.53;5112843;28;20398;-63
2024/01/16 08:53:57;;;;;;;5.75;3.22;;;;;;;0.83;70.51;94250.25;5113482;28;20032;-63
2024/01/16 08:56:22;;;;;;;5.75;3.58;;;;;;;0.81;70.24;94261.50;5113692;28;20034;-63
2024/01/16 08:58:47;;;;;;;6.57;4.03;;;;;;;0.77;70.13;94262.56;5111329;28;20030;-64
2024/01/16 09:01:13;;;;;;;5.70;3.05;;;;;;;0.93;70.37;94275.38;5095250;28;20019;-63
2024/01/16 09:03:38;;;;;;;5.97;3.55;;;;;;;0.93;70.07;94278.75;5113688;27;20455;-63
2024/01/16 09:06:04;;;;;;;4.45;2.90;;;;;;;0.97;69.26;94281.94;5113880;28;20076;-63
2024/01/16 09:08:29;;;;;;;7.15;4.50;;;;;;;0.76;70.66;94287.31;5113918;28;20058;-63
2024/01/16 09:10:55;;;;;;;4.60;3.72;;;;;;;0.86;70.12;94287.63;5112214;28;20504;-63
2024/01/16 09:13:21;;;;;;;3.83;2.63;;;;;;;0.81;70.01;94285.34;5112149;28;20032;-63
2024/01/16 09:15:48;;;;;;;4.57;2.38;;;;;;;0.77;69.94;94294.06;5113466;28;20034;-63
2024/01/16 09:18:13;;;;;;;4.63;2.75;;;;;;;0.79;69.50;94287.16;5113601;28;20027;-63
2024/01/16 09:20:39;;;;;;;3.45;2.55;;;;;;;0.92;69.74;94291.59;5105634;28;20504;-63
2024/01/16 09:23:04;;;;;;;4.22;2.25;;;;;;;0.95;69.44;94288.88;5113392;28;20031;-63
2024/01/16 09:25:30;;;;;;;3.80;2.63;;;;;;;1.00;69.04;94290.28;5113540;28;20038;-63
2024/01/16 09:27:55;;;;;;;7.97;4.70;;;;;;;1.00;69.73;94280.03;5111977;28;20069;-63
2024/01/16 09:30:22;;;;;;;5.07;2.80;;;;;;;0.95;68.53;94279.50;5113350;28;20028;-63
2024/01/16 09:32:48;;;;;;;4.35;2.42;;;;;;;0.85;68.79;94293.66;5112781;28;20038;-64
2024/01/16 09:35:13;;;;;;;4.45;2.92;;;;;;;1.01;68.03;94301.38;5112017;28;20098;-63
2024/01/16 09:37:39;;;;;;;4.85;3.58;;;;;;;1.12;67.75;94301.59;5112908;28;20061;-63
2024/01/16 09:40:06;;;;;;;5.18;3.20;;;;;;;1.06;68.15;94304.50;5112420;28;20028;-63
2024/01/16 09:42:31;;;;;;;3.63;2.58;;;;;;;1.09;67.86;94304.34;5112741;28;20027;-64
2024/01/16 09:44:57;;;;;;;3.20;2.50;;;;;;;1.21;67.51;94295.16;5111711;28;20382;-64
2024/01/16 09:47:22;;;;;;;5.80;2.72;;;;;;;1.28;67.39;94305.00;5094705;28;20043;-63
2024/01/16 09:49:48;;;;;;;4.55;2.97;;;;;;;1.27;67.49;94302.50;5094682;28;20030;-64
2024/01/16 09:52:14;;;;;;;8.85;6.15;;;;;;;1.29;67.13;94306.63;5094402;28;20516;-63
2024/01/16 09:54:39;;;;;;;8.18;5.00;;;;;;;1.37;67.00;94307.97;5112935;28;20044;-64
2024/01/16 09:57:05;;;;;;;3.55;2.65;;;;;;;1.31;66.31;94317.63;5094306;28;20509;-64
2024/01/16 09:59:31;;;;;;;3.22;2.30;;;;;;;1.33;66.32;94325.19;5094547;28;20031;-63
2024/01/16 10:01:58;;;;;;;4.00;2.70;;;;;;;1.32;65.93;94313.31;5111297;28;20031;-63
2024/01/16 10:04:23;;;;;;;5.88;3.30;;;;;;;1.31;66.47;94307.38;5112554;28;20085;-64
2024/01/16 10:06:49;;;;;;;5.05;3.72;;;;;;;1.24;66.72;94313.72;5111458;28;20032;-63
2024/01/16 10:09:15;;;;;;;5.78;3.20;;;;;;;1.24;65.84;94305.22;5092909;28;20528;-63
2024/01/16 10:11:41;;;;;;;3.10;2.00;;;;;;;1.38;65.28;94304.47;5110223;28;20034;-63
2024/01/16 10:14:06;;;;;;;5.90;3.05;;;;;;;1.54;65.63;94311.22;5094175;28;20039;-63
2024/01/16 10:17:05;;;;;;;6.28;3.47;;;;;;;1.25;65.50;94305.13;5112602;28;20040;-64
2024/01/16 10:19:31;;;;;;;3.40;2.03;;;;;;;1.11;65.36;94302.50;5111149;28;20046;-63
2024/01/16 10:22:08;;;;;;;5.82;3.35;;;;;;;1.11;65.47;94289.69;5094259;28;20031;-63
2024/01/16 10:24:35;;;;;;;3.42;2.50;;;;;;;1.11;65.48;94299.94;5077939;28;20036;-64
2024/01/16 10:27:02;;;;;;;3.40;2.30;;;;;;;1.17;65.50;94306.47;5093731;28;20110;-63
2024/01/16 10:29:28;;;;;;;3.63;2.50;;;;;;;1.35;65.66;94310.59;5110848;28;20032;-64
2024/01/16 10:31:53;;;;;;;3.88;2.50;;;;;;;1.31;65.33;94301.44;5093970;28;20024;-63
2024/01/16 10:34:20;;;;;;;6.00;3.00;;;;;;;1.40;64.70;94287.31;5110850;28;20053;-63
2024/01/16 10:36:46;;;;;;;5.05;3.35;;;;;;;1.61;65.05;94309.13;5110760;28;20055;-63
2024/01/16 10:39:11;;;;;;;9.65;6.28;;;;;;;1.52;64.77;94309.66;5111962;28;20031;-64
2024/01/16 10:41:37;;;;;;;5.38;3.85;;;;;;;1.76;64.04;94315.97;5093874;28;20031;-64
2024/01/16 10:44:09;;;;;;;4.38;2.85;;;;;;;1.94;63.86;94315.84;5110624;28;20039;-65
2024/01/16 10:46:35;;;;;;;4.45;2.72;;;;;;;2.01;63.88;94323.09;5094109;28;20036;-64
2024/01/16 10:49:01;;;;;;;5.82;3.38;;;;;;;1.97;63.51;94318.22;5111844;28;20713;-65
2024/01/16 10:51:27;;;;;;;4.95;3.08;;;;;;;2.06;62.74;94315.13;5093863;28;20405;-63
2024/01/16 10:53:57;;;;;;;3.75;2.83;;;;;;;1.92;62.58;94325.34;5110424;28;20028;-64
2024/01/16 10:56:23;;;;;;;5.18;2.97;;;;;;;2.09;62.75;94321.81;5093894;28;20051;-64
2024/01/16 10:58:52;;;;;;;4.78;3.10;;;;;;;2.17;63.31;94324.75;5110388;28;20485;-64
2024/01/16 11:01:18;;;;;;;4.70;2.90;;;;;;;2.24;62.64;94315.81;5110449;28;20038;-64
2024/01/16 11:03:47;;;;;;;5.43;3.08;;;;;;;2.31;62.18;94321.41;5110359;28;20023;-64
2024/01/16 11:06:14;;;;;;;5.57;4.07;;;;;;;2.22;62.27;94312.50;5111871;28;20031;-64
2024/01/16 11:08:39;;;;;;;7.20;4.30;;;;;;;2.01;62.71;94317.16;5093755;28;20048;-64
2024/01/16 11:11:05;;;;;;;7.13;4.97;;;;;;;2.10;62.93;94324.28;5093315;28;20031;-64
2024/01/16 11:13:34;;;;;;;6.05;3.78;;;;;;;1.87;62.67;94333.31;5093122;28;20109;-66
2024/01/16 11:16:00;;;;;;;6.43;3.00;;;;;;;2.27;62.08;94331.00;5111563;28;20439;-64
2024/01/16 11:18:26;;;;;;;5.95;3.58;;;;;;;2.41;61.04;94327.63;5076478;28;20039;-63
2024/01/16 11:20:51;;;;;;;6.68;4.50;;;;;;;2.27;61.63;94331.00;5093169;28;20031;-64
2024/01/16 11:23:17;;;;;;;5.85;4.00;;;;;;;2.36;61.18;94338.16;5111284;28;20028;-64
2024/01/16 11:25:42;;;;;;;6.57;4.50;;;;;;;2.61;61.72;94334.16;5110128;28;20088;-64
2024/01/16 11:28:12;;;;;;;4.38;2.30;;;;;;;2.30;59.77;94327.44;5111252;28;20513;-63
2024/01/16 11:30:37;;;;;;;5.32;3.50;;;;;;;2.37;59.89;94319.31;5111356;28;20028;-64
2024/01/16 11:33:04;;;;;;;5.82;3.20;;;;;;;2.88;59.26;94340.22;5109984;28;20085;-64